Time;durP1;ratioP1;P1;durP2;ratioP2;P2;SDS_P1;SDS_P2;PMS_P1;PMS_P2;Temp;Humidity;BMP_temperature;BMP_pressure;BME280_temperature;BME280_humidity;BME280_pressure;Samples;Min_cycle;Max_cycle;Signal;HPM_P1;HPM_P2
2021/07/22 00:02:24;;;;;;;3.80;0.35;;;25.70;49.30;;;;;;5051611;28;20482;-84
2021/07/22 00:04:50;;;;;;;1.60;0.43;;;25.70;49.40;;;;;;5054265;28;20024;-84
2021/07/22 00:07:17;;;;;;;0.95;0.32;;;25.70;49.50;;;;;;5038069;28;20492;-83
2021/07/22 00:09:43;;;;;;;1.23;0.30;;;25.60;49.40;;;;;;5056343;28;20048;-84
2021/07/22 00:12:09;;;;;;;0.55;0.20;;;25.60;49.50;;;;;;5056352;28;20088;-84
2021/07/22 00:14:35;;;;;;;2.05;0.82;;;25.50;49.50;;;;;;5037805;28;20366;-84
2021/07/22 00:17:03;;;;;;;1.77;0.43;;;25.50;49.60;;;;;;5052013;28;20521;-84
2021/07/22 00:19:29;;;;;;;4.95;0.95;;;25.50;49.60;;;;;;5040171;28;20044;-83
2021/07/22 00:21:56;;;;;;;1.63;0.40;;;25.40;49.60;;;;;;5022175;28;20025;-84
2021/07/22 00:24:22;;;;;;;3.17;0.32;;;25.40;49.70;;;;;;5022191;28;20025;-84
2021/07/22 00:26:48;;;;;;;1.73;0.65;;;25.30;49.70;;;;;;5055883;28;20020;-84
2021/07/22 00:29:14;;;;;;;4.32;0.82;;;25.20;49.70;;;;;;5032937;28;20037;-84
2021/07/22 00:31:40;;;;;;;1.02;0.35;;;25.10;49.70;;;;;;5055869;28;20052;-84
2021/07/22 00:34:07;;;;;;;0.93;0.30;;;25.10;49.70;;;;;;5070100;28;20052;-84
2021/07/22 00:36:33;;;;;;;1.17;0.47;;;25.10;49.70;;;;;;5055784;28;20036;-83
2021/07/22 00:38:59;;;;;;;1.10;0.43;;;25.10;49.70;;;;;;5055752;28;20044;-83
2021/07/22 00:41:25;;;;;;;1.27;0.43;;;25.10;49.70;;;;;;5052193;28;20105;-83
2021/07/22 00:43:51;;;;;;;0.68;0.30;;;25.10;49.70;;;;;;5036038;28;20414;-81
2021/07/22 00:46:17;;;;;;;1.98;0.90;;;25.10;49.70;;;;;;5056837;28;20048;-85
2021/07/22 00:48:43;;;;;;;1.55;0.30;;;25.00;49.80;;;;;;5053958;28;20470;-84
2021/07/22 00:51:09;;;;;;;2.28;0.38;;;25.00;49.80;;;;;;5037823;28;20044;-83
2021/07/22 00:53:35;;;;;;;1.63;0.35;;;24.90;49.80;;;;;;5036290;28;20020;-84
2021/07/22 00:56:02;;;;;;;0.32;0.20;;;24.90;50.00;;;;;;5051802;28;20508;-84
2021/07/22 00:58:29;;;;;;;3.08;0.47;;;24.80;50.00;;;;;;5056864;28;20029;-84
2021/07/22 01:00:55;;;;;;;0.95;0.60;;;24.80;50.20;;;;;;5054757;28;20049;-82
2021/07/22 01:03:21;;;;;;;1.55;0.47;;;24.70;50.20;;;;;;5053934;28;20021;-83
2021/07/22 01:05:47;;;;;;;0.85;0.63;;;24.60;50.20;;;;;;5021345;28;20025;-83
2021/07/22 01:08:13;;;;;;;4.95;0.60;;;24.60;50.30;;;;;;5050078;28;20025;-84
2021/07/22 01:10:39;;;;;;;2.67;0.68;;;24.60;50.40;;;;;;5038404;28;20037;-87
2021/07/22 01:13:05;;;;;;;1.75;0.40;;;24.50;50.50;;;;;;5055662;28;20491;-83
2021/07/22 01:15:31;;;;;;;0.22;0.03;;;24.50;50.60;;;;;;5036874;28;20037;-83
2021/07/22 01:17:57;;;;;;;0.30;0.15;;;24.40;50.60;;;;;;5037035;28;20031;-83
2021/07/22 01:20:25;;;;;;;2.60;0.60;;;24.40;50.70;;;;;;5033637;28;20390;-84
2021/07/22 01:22:52;;;;;;;1.15;0.50;;;24.40;50.70;;;;;;5018989;28;20037;-83
2021/07/22 01:25:19;;;;;;;2.10;0.70;;;24.30;50.80;;;;;;5053655;28;20043;-83
2021/07/22 01:27:45;;;;;;;2.85;0.40;;;24.30;50.90;;;;;;5036874;28;20044;-84
2021/07/22 01:30:12;;;;;;;3.53;0.45;;;24.30;50.90;;;;;;5053970;28;20037;-85
2021/07/22 01:32:38;;;;;;;1.27;0.40;;;24.30;50.90;;;;;;5036571;28;20036;-84
2021/07/22 01:35:05;;;;;;;2.58;0.73;;;24.30;50.90;;;;;;5033837;28;20033;-82
2021/07/22 01:37:31;;;;;;;0.77;0.15;;;24.40;50.90;;;;;;5039024;28;20516;-83
2021/07/22 01:39:57;;;;;;;5.18;0.55;;;24.40;50.80;;;;;;5053747;28;20053;-84
2021/07/22 01:42:23;;;;;;;2.40;0.45;;;24.40;50.80;;;;;;5054894;28;20029;-84
2021/07/22 01:44:49;;;;;;;2.90;0.55;;;24.40;50.80;;;;;;5054291;28;20389;-83
2021/07/22 01:47:16;;;;;;;1.88;0.60;;;24.50;50.90;;;;;;5049034;28;20041;-83
2021/07/22 01:49:42;;;;;;;1.00;0.22;;;24.50;50.90;;;;;;5037236;28;20037;-85
2021/07/22 01:52:08;;;;;;;3.38;0.35;;;24.50;50.90;;;;;;5055397;28;20032;-84
2021/07/22 01:54:34;;;;;;;0.95;0.25;;;24.50;51.00;;;;;;5054652;28;20021;-83
2021/07/22 01:57:00;;;;;;;1.10;0.40;;;24.40;51.00;;;;;;5037046;28;20035;-83
2021/07/22 01:59:35;;;;;;;2.88;0.55;;;24.40;51.00;;;;;;5051253;28;20060;-83
2021/07/22 02:02:05;;;;;;;7.22;0.88;;;24.40;51.10;;;;;;5030888;28;20044;-83
2021/07/22 02:04:31;;;;;;;1.38;0.82;;;24.40;51.10;;;;;;5048299;28;20029;-84
2021/07/22 02:06:57;;;;;;;1.42;0.65;;;24.30;51.20;;;;;;5031851;28;20044;-84
2021/07/22 02:09:24;;;;;;;0.32;0.30;;;24.20;51.30;;;;;;5050952;28;20501;-84
2021/07/22 02:11:51;;;;;;;0.10;0.05;;;24.10;51.40;;;;;;5050926;28;20035;-84
2021/07/22 02:14:17;;;;;;;0.60;0.35;;;24.10;51.50;;;;;;5018558;28;20037;-84
2021/07/22 02:16:43;;;;;;;1.38;0.30;;;24.10;51.60;;;;;;5053265;28;20052;-83
2021/07/22 02:19:09;;;;;;;1.27;0.22;;;24.00;51.60;;;;;;5051982;28;20025;-84
2021/07/22 02:21:38;;;;;;;0.88;0.52;;;24.00;51.70;;;;;;5018957;28;20405;-83
2021/07/22 02:24:05;;;;;;;0.68;0.00;;;23.90;51.70;;;;;;5050740;28;20033;-84
2021/07/22 02:26:31;;;;;;;2.47;1.08;;;23.90;51.80;;;;;;5050532;28;20036;-83
2021/07/22 02:28:57;;;;;;;0.40;0.10;;;23.90;51.90;;;;;;5033999;28;20029;-83
2021/07/22 02:31:24;;;;;;;0.35;0.13;;;23.80;52.00;;;;;;5052181;28;20415;-83
2021/07/22 02:33:50;;;;;;;2.13;0.55;;;23.70;52.00;;;;;;5032577;28;20037;-85
2021/07/22 02:36:16;;;;;;;1.13;0.15;;;23.70;52.20;;;;;;5050548;28;20393;-83
2021/07/22 02:38:42;;;;;;;7.90;0.75;;;23.60;52.30;;;;;;5038725;28;20039;-83
2021/07/22 02:41:08;;;;;;;0.63;0.40;;;23.50;52.30;;;;;;5036012;28;20474;-83
2021/07/22 02:43:34;;;;;;;1.65;0.50;;;23.50;52.40;;;;;;5059706;28;20029;-83
2021/07/22 02:46:26;;;;;;;1.15;0.68;;;23.50;52.50;;;;;;5057340;28;20048;-84
2021/07/22 02:48:56;;;;;;;3.22;0.30;;;23.40;52.60;;;;;;5036427;28;20485;-84
2021/07/22 02:51:22;;;;;;;2.90;0.32;;;23.40;52.60;;;;;;5040111;28;20036;-83
2021/07/22 02:53:48;;;;;;;0.88;0.40;;;23.30;53.30;;;;;;5023662;28;20037;-83
2021/07/22 02:56:14;;;;;;;1.95;0.52;;;23.30;52.90;;;;;;5036507;28;20405;-83
2021/07/22 02:58:40;;;;;;;0.75;0.40;;;23.20;53.00;;;;;;5058138;28;20033;-84
2021/07/22 03:01:10;;;;;;;0.68;0.15;;;23.10;53.10;;;;;;5054909;28;20521;-83
2021/07/22 03:03:36;;;;;;;2.00;0.40;;;23.10;53.30;;;;;;5039508;28;20044;-85
2021/07/22 03:06:02;;;;;;;1.38;0.28;;;23.00;53.30;;;;;;5056069;28;20029;-84
2021/07/22 03:08:28;;;;;;;0.30;0.22;;;23.00;53.40;;;;;;5037886;28;20044;-84
2021/07/22 03:10:54;;;;;;;0.55;0.30;;;22.90;53.40;;;;;;5036950;28;20029;-83
2021/07/22 03:13:20;;;;;;;0.80;0.57;;;22.90;53.40;;;;;;5059191;28;20359;-83
2021/07/22 03:15:46;;;;;;;4.00;0.77;;;22.90;53.40;;;;;;5054351;28;20040;-83
2021/07/22 03:18:12;;;;;;;0.75;0.20;;;22.90;53.50;;;;;;5056909;28;20021;-83
2021/07/22 03:20:39;;;;;;;1.88;0.50;;;22.90;53.50;;;;;;5056830;28;20408;-84
2021/07/22 03:23:05;;;;;;;1.05;0.15;;;22.80;53.60;;;;;;5035040;28;20045;-82
2021/07/22 03:25:31;;;;;;;0.08;0.05;;;22.80;54.20;;;;;;5041452;28;20044;-84
2021/07/22 03:28:00;;;;;;;1.38;0.68;;;22.80;53.60;;;;;;5038983;28;20040;-83
2021/07/22 03:30:27;;;;;;;0.80;0.52;;;22.80;53.60;;;;;;5056577;28;20033;-83
2021/07/22 03:32:53;;;;;;;2.63;0.22;;;22.80;53.60;;;;;;5057031;28;20036;-83
2021/07/22 03:35:19;;;;;;;1.17;0.40;;;22.80;53.50;;;;;;5054062;28;20024;-83
2021/07/22 03:37:45;;;;;;;0.65;0.17;;;22.80;53.50;;;;;;5038731;28;20482;-83
2021/07/22 03:40:12;;;;;;;0.32;0.10;;;22.80;53.50;;;;;;5057861;28;20045;-83
2021/07/22 03:42:38;;;;;;;3.40;0.65;;;22.80;53.50;;;;;;5039352;28;20048;-83
2021/07/22 03:45:05;;;;;;;0.95;0.52;;;22.80;53.50;;;;;;5021886;28;20047;-80
2021/07/22 03:47:31;;;;;;;6.68;1.65;;;22.80;53.50;;;;;;5055397;28;20021;-83
2021/07/22 03:49:57;;;;;;;0.68;0.30;;;22.80;53.40;;;;;;5053651;28;20036;-83
2021/07/22 03:52:23;;;;;;;0.55;0.35;;;22.90;53.50;;;;;;5040175;28;20037;-83
2021/07/22 03:54:49;;;;;;;1.95;0.45;;;22.90;53.50;;;;;;5055223;28;20029;-83
2021/07/22 03:57:15;;;;;;;1.55;0.57;;;22.90;53.50;;;;;;5056291;28;20393;-83
2021/07/22 03:59:41;;;;;;;0.88;0.40;;;22.90;53.40;;;;;;5056648;28;20039;-83
2021/07/22 04:02:07;;;;;;;1.42;0.08;;;22.90;53.50;;;;;;5016865;28;20048;-83
2021/07/22 04:04:33;;;;;;;0.75;0.17;;;22.90;53.50;;;;;;5058179;28;20025;-82
2021/07/22 04:07:00;;;;;;;4.32;1.80;;;22.90;53.60;;;;;;5056498;28;20029;-83
2021/07/22 04:09:26;;;;;;;3.60;0.60;;;22.90;53.50;;;;;;5038312;28;20474;-83
2021/07/22 04:11:52;;;;;;;0.57;0.30;;;22.90;53.60;;;;;;5038235;28;20056;-84
2021/07/22 04:14:18;;;;;;;1.17;0.35;;;22.90;53.70;;;;;;5053103;28;20048;-83
2021/07/22 04:16:45;;;;;;;5.95;0.60;;;22.80;53.60;;;;;;5037717;28;20037;-84
2021/07/22 04:19:11;;;;;;;1.15;0.47;;;22.80;53.70;;;;;;5056796;28;20024;-83
2021/07/22 04:21:37;;;;;;;6.47;2.00;;;22.80;53.60;;;;;;5056055;28;20048;-83
2021/07/22 04:24:03;;;;;;;26.98;2.22;;;22.80;53.70;;;;;;5054823;28;20087;-84
2021/07/22 04:26:29;;;;;;;6.93;0.25;;;22.80;53.70;;;;;;5036460;28;20037;-83
2021/07/22 04:28:55;;;;;;;254.95;114.95;;;22.80;53.80;;;;;;5018863;28;20032;-83
2021/07/22 04:31:22;;;;;;;3.35;0.10;;;22.80;53.90;;;;;;5057199;28;20517;-83
2021/07/22 04:33:48;;;;;;;0.90;0.28;;;22.80;53.90;;;;;;5054475;28;20028;-84
2021/07/22 04:36:14;;;;;;;0.95;0.10;;;22.80;53.90;;;;;;5021776;28;20036;-84
2021/07/22 04:38:41;;;;;;;2.40;0.50;;;22.80;53.90;;;;;;5055770;28;20021;-83
2021/07/22 04:41:07;;;;;;;3.42;0.82;;;22.70;53.90;;;;;;5034886;28;20045;-83
2021/07/22 04:43:33;;;;;;;1.17;0.38;;;22.70;54.00;;;;;;5039989;28;20048;-84
2021/07/22 04:46:03;;;;;;;1.33;0.52;;;22.80;54.00;;;;;;5037424;28;20029;-83
2021/07/22 04:48:30;;;;;;;175.15;35.60;;;22.70;54.00;;;;;;5005173;28;20343;-83
2021/07/22 04:50:56;;;;;;;2.35;0.73;;;22.70;54.00;;;;;;5055488;28;20032;-83
2021/07/22 04:53:23;;;;;;;2.90;0.47;;;22.70;54.10;;;;;;5052389;28;20040;-83
2021/07/22 04:55:49;;;;;;;0.68;0.30;;;22.60;54.10;;;;;;5036357;28;20025;-84
2021/07/22 04:58:15;;;;;;;3.72;0.50;;;22.60;54.20;;;;;;5056702;28;20029;-83
2021/07/22 05:00:41;;;;;;;0.57;0.30;;;22.60;54.20;;;;;;5054868;28;20049;-83
2021/07/22 05:03:07;;;;;;;2.20;0.40;;;22.50;54.30;;;;;;5053905;28;20386;-84
2021/07/22 05:05:35;;;;;;;0.43;0.10;;;22.50;54.40;;;;;;5054387;28;20036;-83
2021/07/22 05:08:02;;;;;;;1.50;0.55;;;22.50;54.40;;;;;;5051751;28;20471;-83
2021/07/22 05:10:29;;;;;;;0.30;0.20;;;22.50;54.40;;;;;;5056865;28;20473;-83
2021/07/22 05:12:59;;;;;;;3.50;0.40;;;22.50;54.40;;;;;;5053069;28;20041;-83
2021/07/22 05:15:25;;;;;;;2.45;0.10;;;22.50;54.50;;;;;;5054298;28;20033;-83
2021/07/22 05:17:51;;;;;;;1.55;0.45;;;22.50;54.50;;;;;;5055189;28;20376;-84
2021/07/22 05:20:17;;;;;;;0.25;0.10;;;22.40;54.50;;;;;;5034044;28;20032;-83
2021/07/22 05:22:43;;;;;;;0.17;0.10;;;22.40;54.60;;;;;;5054942;28;20377;-83
2021/07/22 05:25:09;;;;;;;0.13;0.05;;;22.40;54.70;;;;;;5037966;28;20021;-83
2021/07/22 05:27:35;;;;;;;1.40;0.30;;;22.30;54.70;;;;;;5055052;28;20041;-83
2021/07/22 05:30:03;;;;;;;0.52;0.25;;;22.30;54.80;;;;;;5055020;28;20039;-83
2021/07/22 05:32:29;;;;;;;539.78;70.80;;;22.30;54.70;;;;;;5034703;28;20045;-83
2021/07/22 05:34:55;;;;;;;0.40;0.40;;;22.50;54.60;;;;;;5034421;28;20470;-84
2021/07/22 05:37:21;;;;;;;1.80;0.73;;;22.60;54.30;;;;;;5038297;28;20040;-84
2021/07/22 05:39:47;;;;;;;0.43;0.30;;;22.80;54.00;;;;;;5054312;28;20033;-83
2021/07/22 05:42:13;;;;;;;250.98;67.88;;;23.00;53.80;;;;;;5035274;28;20041;-84
2021/07/22 05:44:40;;;;;;;2.03;0.70;;;23.10;53.70;;;;;;5054641;28;20044;-84
2021/07/22 05:47:06;;;;;;;1.08;0.88;;;23.20;53.60;;;;;;5032281;28;20167;-84
2021/07/22 05:49:32;;;;;;;43.35;16.67;;;23.30;53.40;;;;;;5056762;28;20485;-83
2021/07/22 05:51:59;;;;;;;1.75;0.80;;;23.50;53.30;;;;;;5052974;28;20043;-84
2021/07/22 05:54:25;;;;;;;254.98;62.33;;;23.60;53.10;;;;;;5020548;28;20025;-83
2021/07/22 05:56:51;;;;;;;8.88;8.38;;;23.70;53.00;;;;;;5054835;28;20469;-83
2021/07/22 05:59:17;;;;;;;6.32;6.00;;;23.70;52.90;;;;;;5051241;28;20033;-84
2021/07/22 06:01:43;;;;;;;7.97;7.57;;;23.80;52.90;;;;;;5054337;28;20052;-82
2021/07/22 06:04:09;;;;;;;4.00;3.80;;;23.90;52.80;;;;;;5055251;28;20029;-84
2021/07/22 06:06:36;;;;;;;9.75;9.25;;;24.00;52.70;;;;;;5054267;28;20040;-83
2021/07/22 06:09:03;;;;;;;4.28;4.03;;;24.10;52.60;;;;;;5020628;28;20512;-83
2021/07/22 06:11:29;;;;;;;8.93;8.52;;;24.20;52.50;;;;;;5052987;28;20033;-83
2021/07/22 06:13:55;;;;;;;68.32;64.95;;;24.20;52.40;;;;;;5034014;28;20037;-83
2021/07/22 06:16:22;;;;;;;224.05;213.15;;;24.40;52.40;;;;;;5055943;28;20060;-83
2021/07/22 06:18:48;;;;;;;116.53;110.97;;;24.50;52.20;;;;;;5036803;28;20466;-83
2021/07/22 06:21:15;;;;;;;95.90;88.93;;;24.50;52.10;;;;;;5034909;28;20037;-84
2021/07/22 06:23:41;;;;;;;101.18;96.03;;;24.60;51.90;;;;;;5054734;28;20025;-84
2021/07/22 06:26:07;;;;;;;85.05;81.00;;;24.80;51.90;;;;;;5033920;28;20375;-84
2021/07/22 06:28:33;;;;;;;75.63;71.32;;;24.90;51.80;;;;;;5021504;28;20478;-85
2021/07/22 06:30:59;;;;;;;109.60;104.05;;;25.00;51.60;;;;;;5052429;28;20060;-84
2021/07/22 06:33:26;;;;;;;116.53;110.78;;;25.10;51.50;;;;;;5054273;28;20489;-85
2021/07/22 06:35:52;;;;;;;103.68;98.75;;;25.00;51.40;;;;;;5053422;28;20103;-84
2021/07/22 06:38:18;;;;;;;92.88;88.43;;;25.10;51.40;;;;;;5017157;28;20035;-84
2021/07/22 06:40:44;;;;;;;139.88;132.88;;;25.10;51.40;;;;;;5036677;28;20037;-84
2021/07/22 06:43:10;;;;;;;119.72;114.00;;;25.10;51.40;;;;;;5054960;28;20025;-84
2021/07/22 06:45:38;;;;;;;106.30;101.28;;;25.30;51.30;;;;;;5019564;28;20037;-84
2021/07/22 06:48:04;;;;;;;101.72;96.88;;;25.40;51.10;;;;;;5019591;28;20478;-84
2021/07/22 06:50:31;;;;;;;104.60;99.55;;;25.50;50.90;;;;;;5053344;28;20044;-84
2021/07/22 06:52:57;;;;;;;87.28;83.15;;;25.60;50.80;;;;;;5036221;28;20029;-84
2021/07/22 06:55:23;;;;;;;79.72;75.75;;;25.60;50.60;;;;;;5042155;28;20033;-85
2021/07/22 06:57:49;;;;;;;78.85;74.65;;;25.70;50.70;;;;;;5040507;28;20501;-85
2021/07/22 07:00:15;;;;;;;75.53;71.95;;;25.60;50.50;;;;;;5055696;28;20191;-84
2021/07/22 07:02:42;;;;;;;79.50;75.70;;;25.70;50.50;;;;;;5057030;28;20051;-84
2021/07/22 07:05:08;;;;;;;101.65;96.63;;;25.70;50.40;;;;;;5019433;28;20021;-84
2021/07/22 07:07:34;;;;;;;129.73;123.53;;;25.80;50.30;;;;;;5075141;28;20036;-84
2021/07/22 07:10:01;;;;;;;100.85;95.97;;;25.90;50.10;;;;;;5038476;28;20029;-84
2021/07/22 07:12:27;;;;;;;88.30;84.05;;;26.00;49.90;;;;;;5023317;28;20029;-83
2021/07/22 07:14:53;;;;;;;92.97;88.55;;;26.00;49.90;;;;;;5057465;28;20033;-86
2021/07/22 07:17:19;;;;;;;108.75;103.50;;;26.00;49.90;;;;;;5035877;28;20033;-84
2021/07/22 07:19:45;;;;;;;147.02;139.63;;;26.00;49.80;;;;;;5056985;28;20029;-83
2021/07/22 07:22:11;;;;;;;110.13;104.88;;;26.10;49.70;;;;;;5055690;28;20047;-83
2021/07/22 07:24:37;;;;;;;102.45;97.32;;;26.10;49.70;;;;;;5039575;28;20033;-84
2021/07/22 07:27:07;;;;;;;93.78;89.28;;;26.30;49.60;;;;;;5038325;28;20034;-85
2021/07/22 07:29:33;;;;;;;88.63;84.43;;;26.40;49.40;;;;;;5021595;28;20040;-84
2021/07/22 07:31:59;;;;;;;97.43;92.75;;;26.40;49.30;;;;;;5053262;28;20052;-84
2021/07/22 07:34:26;;;;;;;110.20;104.95;;;26.40;49.30;;;;;;5040907;28;20033;-83
2021/07/22 07:36:53;;;;;;;102.55;97.60;;;26.40;49.20;;;;;;5039348;28;20036;-84
2021/07/22 07:39:19;;;;;;;87.03;82.90;;;26.50;49.20;;;;;;5037707;28;20040;-85
2021/07/22 07:41:45;;;;;;;81.50;77.55;;;26.50;49.00;;;;;;5056127;28;20044;-83
2021/07/22 07:44:11;;;;;;;84.07;79.85;;;26.50;49.00;;;;;;5052744;28;20387;-85
2021/07/22 07:46:37;;;;;;;95.90;91.22;;;26.70;48.90;;;;;;5040415;28;20025;-84
2021/07/22 07:49:03;;;;;;;103.25;97.63;;;26.70;48.70;;;;;;5037377;28;20025;-85
2021/07/22 07:51:29;;;;;;;104.68;99.63;;;26.80;48.60;;;;;;5039034;28;20056;-85
2021/07/22 07:53:56;;;;;;;106.38;101.30;;;26.80;48.40;;;;;;5038853;28;20083;-85
2021/07/22 07:56:22;;;;;;;99.05;94.25;;;26.80;48.40;;;;;;5054428;28;20036;-85
2021/07/22 07:58:48;;;;;;;104.40;99.45;;;26.90;48.40;;;;;;5055666;28;20025;-85
2021/07/22 08:01:15;;;;;;;103.90;98.80;;;26.90;48.40;;;;;;5037388;28;20486;-85
2021/07/22 08:03:41;;;;;;;118.63;112.90;;;27.00;48.20;;;;;;5038147;28;20029;-85
2021/07/22 08:06:08;;;;;;;112.82;107.43;;;27.20;48.20;;;;;;5022139;28;20036;-84
2021/07/22 08:08:34;;;;;;;133.95;127.03;;;27.30;48.00;;;;;;5021286;28;20031;-87
2021/07/22 08:11:00;;;;;;;133.30;126.78;;;27.40;47.90;;;;;;5035335;28;20037;-84
2021/07/22 08:13:27;;;;;;;131.27;124.95;;;27.70;47.60;;;;;;5058350;28;20039;-84
2021/07/22 08:15:54;;;;;;;124.43;118.38;;;27.80;47.30;;;;;;5006387;28;20037;-84
2021/07/22 08:18:20;;;;;;;129.93;123.57;;;28.00;47.20;;;;;;5020225;28;20036;-84
2021/07/22 08:20:46;;;;;;;118.20;112.30;;;28.10;47.00;;;;;;5038348;28;20041;-84
2021/07/22 08:23:13;;;;;;;134.20;127.60;;;28.20;47.00;;;;;;5052179;28;20033;-85
2021/07/22 08:25:39;;;;;;;128.88;122.47;;;28.40;46.90;;;;;;5022990;28;20063;-85
2021/07/22 08:28:05;;;;;;;141.10;134.02;;;28.50;46.60;;;;;;5056140;28;20029;-85
2021/07/22 08:30:32;;;;;;;140.73;133.73;;;28.60;46.40;;;;;;5037213;28;20099;-84
2021/07/22 08:32:58;;;;;;;155.10;147.40;;;28.70;46.30;;;;;;5037931;28;20496;-85
2021/07/22 08:35:24;;;;;;;150.38;142.77;;;28.70;46.20;;;;;;5019464;28;20029;-86
2021/07/22 08:37:50;;;;;;;146.00;138.38;;;28.70;46.10;;;;;;5036693;28;20033;-85
2021/07/22 08:40:16;;;;;;;146.77;139.07;;;28.80;46.60;;;;;;5037093;28;20470;-85
2021/07/22 08:42:44;;;;;;;137.50;130.73;;;29.00;45.90;;;;;;5020589;28;20413;-85
2021/07/22 08:45:11;;;;;;;140.02;133.20;;;29.10;45.70;;;;;;5054455;28;20512;-85
2021/07/22 08:47:38;;;;;;;131.52;124.70;;;29.20;45.50;;;;;;5036832;28;20033;-85
2021/07/22 08:50:11;;;;;;;134.48;126.85;;;29.30;45.40;;;;;;5033697;28;20044;-85
2021/07/22 08:52:37;;;;;;;131.80;124.85;;;29.30;45.30;;;;;;5068169;28;20055;-84
2021/07/22 08:55:04;;;;;;;106.13;100.95;;;29.40;45.10;;;;;;5038077;28;20033;-85
2021/07/22 08:57:33;;;;;;;111.20;105.85;;;29.50;45.00;;;;;;5037698;28;20056;-85
2021/07/22 09:00:00;;;;;;;111.30;106.00;;;29.50;44.80;;;;;;5023896;28;20032;-85
2021/07/22 09:02:32;;;;;;;116.03;110.22;;;29.60;44.80;;;;;;5052425;28;20041;-85
2021/07/22 09:05:00;;;;;;;124.47;118.35;;;29.70;44.70;;;;;;5035168;28;20025;-85
2021/07/22 09:07:27;;;;;;;125.65;119.40;;;29.80;44.50;;;;;;5055319;28;20393;-86
2021/07/22 09:10:08;;;;;;;114.90;109.40;;;30.00;44.30;;;;;;5037390;28;20033;-85
2021/07/22 09:12:38;;;;;;;113.72;108.25;;;30.30;44.10;;;;;;5055194;28;20029;-84
2021/07/22 09:15:05;;;;;;;117.50;111.63;;;30.30;43.80;;;;;;5020156;28;20033;-86
2021/07/22 09:17:31;;;;;;;117.70;111.35;;;30.40;43.70;;;;;;5053698;28;20033;-85
2021/07/22 09:19:57;;;;;;;115.30;109.78;;;30.40;43.60;;;;;;5051960;28;20033;-83
2021/07/22 09:22:36;;;;;;;117.68;112.05;;;30.50;43.50;;;;;;5039337;28;20401;-82
2021/07/22 09:25:03;;;;;;;120.10;114.32;;;30.40;43.40;;;;;;5037999;28;20033;-83
2021/07/22 09:27:37;;;;;;;127.82;121.38;;;30.50;43.30;;;;;;5020936;28;20044;-83
2021/07/22 09:30:04;;;;;;;123.10;117.15;;;30.50;43.20;;;;;;5036074;28;20037;-84
2021/07/22 09:32:34;;;;;;;116.50;110.82;;;30.60;43.10;;;;;;5035059;28;20044;-82
2021/07/22 09:35:15;;;;;;;100.50;95.72;;;30.70;42.90;;;;;;5050115;28;20057;-83
2021/07/22 09:37:43;;;;;;;128.03;121.83;;;31.00;42.80;;;;;;5063621;28;20036;-84
2021/07/22 09:40:10;;;;;;;122.47;116.55;;;31.00;42.50;;;;;;5054017;28;20378;-84
2021/07/22 09:42:43;;;;;;;125.93;119.47;;;31.10;42.00;;;;;;5036831;28;20044;-83
2021/07/22 09:45:16;;;;;;;126.35;120.18;;;31.10;42.00;;;;;;5035496;28;20017;-84
2021/07/22 09:47:42;;;;;;;122.20;116.30;;;31.00;41.70;;;;;;5054805;28;20024;-85
2021/07/22 09:50:19;;;;;;;119.22;113.38;;;31.00;41.70;;;;;;5016859;28;20493;-85
2021/07/22 09:52:50;;;;;;;115.57;109.95;;;31.10;41.40;;;;;;5046993;28;20554;-86
2021/07/22 09:55:27;;;;;;;115.75;110.00;;;31.20;41.50;;;;;;5054656;28;20367;-85
2021/07/22 09:57:54;;;;;;;111.63;106.22;;;31.30;41.30;;;;;;5037012;28;20024;-86
2021/07/22 10:00:21;;;;;;;120.47;114.65;;;31.40;41.30;;;;;;5019888;28;20355;-85
2021/07/22 10:02:49;;;;;;;111.70;106.20;;;31.50;41.10;;;;;;5036968;28;20048;-85
2021/07/22 10:05:16;;;;;;;116.82;111.10;;;31.70;40.90;;;;;;5033362;28;20025;-86
2021/07/22 10:07:42;;;;;;;112.03;106.53;;;31.80;40.70;;;;;;5021246;28;20028;-85
2021/07/22 10:10:09;;;;;;;114.25;108.75;;;32.00;40.60;;;;;;5069103;28;20034;-84
2021/07/22 10:12:35;;;;;;;115.65;110.05;;;32.10;40.50;;;;;;5040065;28;20028;-86
2021/07/22 10:15:02;;;;;;;118.70;113.00;;;32.10;40.20;;;;;;5043908;28;20134;-86
2021/07/22 10:17:34;;;;;;;101.60;96.65;;;32.20;40.20;;;;;;5051920;28;20041;-85
2021/07/22 10:20:03;;;;;;;95.82;91.15;;;32.20;39.50;;;;;;5051257;28;20486;-83
2021/07/22 10:22:29;;;;;;;111.47;106.13;;;32.10;39.10;;;;;;5056358;28;20044;-84
2021/07/22 10:24:55;;;;;;;102.72;97.80;;;31.90;38.90;;;;;;5052416;28;20044;-83
2021/07/22 10:27:22;;;;;;;99.47;94.07;;;31.90;39.60;;;;;;5057072;28;20048;-83
2021/07/22 10:29:48;;;;;;;103.22;98.30;;;31.90;38.80;;;;;;5024032;28;20035;-82
2021/07/22 10:32:20;;;;;;;99.22;94.38;;;32.00;38.80;;;;;;5053884;28;20049;-83
2021/07/22 10:34:46;;;;;;;95.70;91.20;;;32.00;38.70;;;;;;5024350;28;20501;-84
2021/07/22 10:37:17;;;;;;;98.72;94.03;;;32.10;38.60;;;;;;5041288;28;20028;-83
2021/07/22 10:40:09;;;;;;;93.07;88.60;;;32.10;38.60;;;;;;5024259;28;20386;-85
2021/07/22 10:42:48;;;;;;;98.35;93.53;;;32.20;38.50;;;;;;5057769;28;20041;-82
2021/07/22 10:45:20;;;;;;;93.47;89.07;;;32.20;38.10;;;;;;5057600;28;20019;-81
2021/07/22 10:48:07;;;;;;;86.35;82.18;;;32.10;38.10;;;;;;5058000;28;20021;-82
2021/07/22 10:50:40;;;;;;;99.07;94.35;;;32.10;38.10;;;;;;5056790;28;20054;-83
2021/07/22 10:53:06;;;;;;;95.10;90.32;;;32.10;38.00;;;;;;5052937;28;20032;-82
2021/07/22 10:55:45;;;;;;;90.18;85.75;;;32.20;38.00;;;;;;5058100;28;20044;-82
2021/07/22 10:58:23;;;;;;;93.93;89.35;;;32.30;37.90;;;;;;5038751;28;20100;-83
2021/07/22 11:00:50;;;;;;;96.45;91.88;;;32.40;37.70;;;;;;5057071;28;20041;-83
2021/07/22 11:03:40;;;;;;;83.65;79.68;;;32.40;37.50;;;;;;5038629;28;20040;-83
2021/07/22 11:06:07;;;;;;;84.10;80.05;;;32.40;37.30;;;;;;5056936;28;20524;-83
2021/07/22 11:08:40;;;;;;;88.13;83.93;;;32.50;37.20;;;;;;5038499;28;20381;-84
2021/07/22 11:11:07;;;;;;;85.50;81.07;;;32.50;37.00;;;;;;5035140;28;20025;-82
2021/07/22 11:13:37;;;;;;;83.40;79.47;;;32.60;37.00;;;;;;5058205;28;20025;-83
2021/07/22 11:16:25;;;;;;;94.03;89.45;;;32.60;36.80;;;;;;5056277;28;20037;-84
2021/07/22 11:18:52;;;;;;;87.15;83.00;;;32.60;36.60;;;;;;5057270;28;20036;-83
2021/07/22 11:21:27;;;;;;;88.30;84.00;;;32.60;36.50;;;;;;5056550;28;20091;-83
2021/07/22 11:23:58;;;;;;;85.93;81.68;;;32.60;36.50;;;;;;5057542;28;20032;-83
2021/07/22 11:26:31;;;;;;;88.25;83.97;;;32.70;36.50;;;;;;5054577;28;20024;-84
2021/07/22 11:28:59;;;;;;;87.25;82.72;;;32.70;36.30;;;;;;5036979;28;20501;-83
2021/07/22 11:31:25;;;;;;;92.05;87.57;;;32.70;36.30;;;;;;5057382;28;20339;-83
2021/07/22 11:33:51;;;;;;;90.03;85.72;;;32.70;36.20;;;;;;5037679;28;20033;-82
2021/07/22 11:36:22;;;;;;;83.65;79.65;;;32.80;36.10;;;;;;5039329;28;20473;-83
2021/07/22 11:38:52;;;;;;;95.25;90.53;;;32.80;35.80;;;;;;5054555;28;20047;-83
2021/07/22 11:41:19;;;;;;;102.53;97.63;;;32.80;35.90;;;;;;5051878;28;20025;-83
2021/07/22 11:43:49;;;;;;;96.60;91.47;;;32.80;35.90;;;;;;5039130;28;20044;-82
2021/07/22 11:46:16;;;;;;;89.65;85.43;;;32.80;35.90;;;;;;5039734;28;20029;-83
2021/07/22 11:48:42;;;;;;;90.97;86.68;;;32.90;35.60;;;;;;5056870;28;20029;-83
2021/07/22 11:51:10;;;;;;;87.35;82.00;;;32.90;35.60;;;;;;5021828;28;20048;-84
2021/07/22 11:53:36;;;;;;;89.07;84.82;;;33.00;35.30;;;;;;5055961;28;20028;-83
2021/07/22 11:56:32;;;;;;;91.85;87.10;;;33.00;35.10;;;;;;5052857;28;20040;-83
2021/07/22 11:58:59;;;;;;;101.07;96.15;;;33.10;35.10;;;;;;5060937;28;20064;-82
2021/07/22 12:01:25;;;;;;;96.00;91.43;;;33.10;35.00;;;;;;5038263;28;20032;-83
2021/07/22 12:03:51;;;;;;;90.22;85.93;;;33.10;34.90;;;;;;5056539;28;20055;-82
2021/07/22 12:06:24;;;;;;;101.68;96.72;;;33.10;34.90;;;;;;5056588;28;20021;-83
2021/07/22 12:09:07;;;;;;;91.57;86.97;;;33.00;34.80;;;;;;5038224;28;20024;-82
2021/07/22 12:11:43;;;;;;;73.70;70.20;;;32.90;34.80;;;;;;5052982;28;20047;-82
2021/07/22 12:14:09;;;;;;;89.50;85.13;;;32.90;34.60;;;;;;5036309;28;20022;-83
2021/07/22 12:16:35;;;;;;;99.65;94.85;;;32.90;34.50;;;;;;5039851;28;20041;-81
2021/07/22 12:19:01;;;;;;;91.03;86.45;;;33.00;34.40;;;;;;5038413;28;20028;-82
2021/07/22 12:21:29;;;;;;;97.10;92.38;;;32.90;34.50;;;;;;5037053;28;20048;-83
2021/07/22 12:24:13;;;;;;;88.93;84.65;;;33.00;34.40;;;;;;5038284;28;20032;-83
2021/07/22 12:26:39;;;;;;;99.18;94.43;;;33.10;34.40;;;;;;5040760;28;20039;-83
2021/07/22 12:29:05;;;;;;;98.53;93.78;;;33.20;34.30;;;;;;5034204;28;20062;-82
2021/07/22 12:31:39;;;;;;;102.47;97.57;;;33.30;34.20;;;;;;5039566;28;20052;-83
2021/07/22 12:34:06;;;;;;;90.65;86.32;;;33.40;34.30;;;;;;5054736;28;20398;-83